Time,TemperatureF,DewpointF,PressureIn,WindDirection,WindDirectionDegrees,WindSpeedMPH,WindSpeedGustMPH,Humidity,HourlyPrecipIn,Conditions,Clouds,dailyrainin,SoftwareType,DateUTC
2013-02-15 03:56:00,95.0,94.7,30.16,WSW,248,4.3,4.3,99,0.00,,,0.00,WUHU216HW,2013-02-15 09:56:00,
2013-02-15 04:01:00,86.8,86.4,30.16,West,270,5.8,5.8,99,0.00,,,0.00,WUHU216HW,2013-02-15 10:01:00,
2013-02-15 04:06:00,88.0,87.6,30.16,West,270,3.4,6.3,99,0.00,,,0.00,WUHU216HW,2013-02-15 10:06:00,
2013-02-15 04:11:00,85.3,85.0,30.16,WNW,293,3.8,6.3,99,0.00,,,0.00,WUHU216HW,2013-02-15 10:11:00,
2013-02-15 04:16:00,58.1,57.9,30.16,West,270,4.0,6.3,99,0.00,,,0.00,WUHU216HW,2013-02-15 10:16:00,
2013-02-15 04:21:00,48.4,48.2,30.16,NNW,338,2.7,6.3,99,0.00,,,0.00,WUHU216HW,2013-02-15 10:21:00,
2013-02-15 04:26:00,39.6,39.3,30.16,NW,315,6.7,6.7,99,0.00,,,0.00,WUHU216HW,2013-02-15 10:26:00,
2013-02-15 04:31:00,34.4,34.1,30.16,NW,315,3.6,9.2,99,0.00,,,0.00,WUHU216HW,2013-02-15 10:31:00,
2013-02-15 04:36:00,35.1,34.8,30.16,NW,315,4.0,9.2,99,0.00,,,0.00,WUHU216HW,2013-02-15 10:36:00,
2013-02-15 04:41:00,33.3,33.1,30.16,NW,315,4.7,7.6,99,0.00,,,0.00,WUHU216HW,2013-02-15 10:41:00,
2013-02-15 04:46:00,-2.2,-2.6,30.16,NNW,338,4.0,9.2,98,0.00,,,0.00,WUHU216HW,2013-02-15 10:46:00,
2013-02-15 04:51:00,-16.6,-17.5,30.16,North,0,3.4,9.2,96,0.00,,,0.00,WUHU216HW,2013-02-15 10:51:00,
2013-02-15 04:56:00,-32.0,-33.4,30.16,NW,315,8.9,8.9,93,0.00,,,0.00,WUHU216HW,2013-02-15 10:56:00,
2013-02-15 05:01:00,-39.2,-40.7,30.17,NW,315,5.1,9.2,92,0.00,,,0.00,WUHU216HW,2013-02-15 11:01:00,
2013-02-15 05:06:00,-39.2,-40.7,30.17,NNW,338,6.3,9.2,92,0.00,,,0.00,WUHU216HW,2013-02-15 11:06:00,
2013-02-15 05:11:00,-39.2,-40.7,30.17,NNW,338,9.8,9.8,92,0.00,,,0.00,WUHU216HW,2013-02-15 11:11:00,
2013-02-15 05:16:00,-39.2,-40.7,30.17,WNW,293,6.5,9.8,92,0.00,,,0.00,WUHU216HW,2013-02-15 11:16:00,
2013-02-15 05:21:00,-39.2,-40.7,30.17,WNW,293,3.6,7.6,92,0.00,,,0.00,WUHU216HW,2013-02-15 11:21:00,
2013-02-15 05:26:00,-39.2,-40.7,30.17,NNW,338,7.8,8.5,92,0.00,,,0.00,WUHU216HW,2013-02-15 11:26:00,
2013-02-15 05:31:00,-39.2,-40.8,30.17,NNW,338,5.4,8.5,91,0.00,,,0.00,WUHU216HW,2013-02-15 11:31:00,
2013-02-15 05:36:00,-39.2,-41.0,30.18,NNW,338,6.3,6.7,90,0.00,,,0.00,WUHU216HW,2013-02-15 11:36:00,
2013-02-15 05:41:00,-39.2,-41.6,30.18,NNE,23,5.4,7.8,87,0.00,,,0.00,WUHU216HW,2013-02-15 11:41:00,
2013-02-15 05:46:00,-39.2,-42.0,30.18,NW,315,4.9,7.8,85,0.00,,,0.00,WUHU216HW,2013-02-15 11:46:00,
2013-02-15 05:51:00,-39.2,-42.2,30.18,NNW,338,6.9,7.6,84,0.00,,,0.00,WUHU216HW,2013-02-15 11:51:00,
2013-02-15 05:56:00,-39.2,-42.2,30.18,NNW,338,6.9,6.9,84,0.00,,,0.00,WUHU216HW,2013-02-15 11:56:00,
2013-02-15 06:01:00,-39.2,-43.0,30.18,NW,315,6.5,6.5,80,0.00,,,0.00,WUHU216HW,2013-02-15 12:01:00,
2013-02-15 06:06:00,-39.2,-43.2,30.18,NW,315,5.8,6.5,79,0.00,,,0.00,WUHU216HW,2013-02-15 12:06:00,
2013-02-15 06:11:00,-39.2,-43.6,30.18,NNW,338,3.4,7.8,77,0.00,,,0.00,WUHU216HW,2013-02-15 12:11:00,
2013-02-15 06:16:00,-39.2,-43.8,30.19,NNE,23,3.1,7.8,76,0.00,,,0.00,WUHU216HW,2013-02-15 12:16:00,
2013-02-15 06:21:00,-39.2,-44.2,30.19,NW,315,6.9,7.2,74,0.00,,,0.00,WUHU216HW,2013-02-15 12:21:00,
2013-02-15 06:26:00,-39.2,-44.0,30.19,NNE,23,3.6,6.9,75,0.00,,,0.00,WUHU216HW,2013-02-15 12:26:00,
2013-02-15 06:31:00,-39.2,-44.2,30.19,North,0,4.7,8.1,74,0.00,,,0.00,WUHU216HW,2013-02-15 12:31:00,
2013-02-15 06:36:00,-39.2,-44.5,30.19,North,0,4.0,8.1,73,0.00,,,0.00,WUHU216HW,2013-02-15 12:36:00,
2013-02-15 06:41:00,-39.2,-44.5,30.19,NW,315,7.8,8.7,73,0.00,,,0.00,WUHU216HW,2013-02-15 12:41:00,
2013-02-15 06:46:00,-39.2,-44.5,30.19,NW,315,8.5,8.7,73,0.00,,,0.00,WUHU216HW,2013-02-15 12:46:00,
2013-02-15 06:51:00,-39.2,-44.7,30.19,NNE,23,4.5,8.5,72,0.00,,,0.00,WUHU216HW,2013-02-15 12:51:00,
2013-02-15 06:56:00,-39.2,-44.7,30.19,NW,315,8.3,8.3,72,0.00,,,0.00,WUHU216HW,2013-02-15 12:56:00,
2013-02-15 07:01:00,-39.2,-44.7,30.19,NW,315,2.9,8.3,72,0.00,,,0.00,WUHU216HW,2013-02-15 13:01:00,
2013-02-15 07:06:00,-39.2,-44.7,30.20,North,0,4.0,7.2,72,0.00,,,0.00,WUHU216HW,2013-02-15 13:06:00,
2013-02-15 07:11:00,-39.2,-44.7,30.20,NNW,338,6.5,6.5,72,0.00,,,0.00,WUHU216HW,2013-02-15 13:11:00,
2013-02-15 07:16:00,-39.2,-44.9,30.20,North,0,6.3,7.4,71,0.00,,,0.00,WUHU216HW,2013-02-15 13:16:00,
2013-02-15 07:21:00,-39.2,-44.9,30.20,NNW,338,6.9,7.4,71,0.00,,,0.00,WUHU216HW,2013-02-15 13:21:00,
2013-02-15 07:26:00,-39.2,-44.9,30.20,NNW,338,5.1,6.9,71,0.00,,,0.00,WUHU216HW,2013-02-15 13:26:00,
2013-02-15 07:31:00,-39.2,-44.9,30.20,NNW,338,5.8,6.9,71,0.00,,,0.00,WUHU216HW,2013-02-15 13:31:00,
2013-02-15 07:36:00,-39.2,-45.2,30.21,NNW,338,6.3,7.2,70,0.00,,,0.00,WUHU216HW,2013-02-15 13:36:00,
2013-02-15 07:41:00,-39.2,-45.2,30.21,NNW,338,6.5,7.2,70,0.00,,,0.00,WUHU216HW,2013-02-15 13:41:00,
2013-02-15 07:46:00,-39.2,-45.2,30.21,NNW,338,4.5,7.8,70,0.00,,,0.00,WUHU216HW,2013-02-15 13:46:00,
2013-02-15 07:51:00,-39.2,-44.7,30.21,East,90,3.4,7.8,72,0.00,,,0.00,WUHU216HW,2013-02-15 13:51:00,
2013-02-15 07:56:00,-39.2,-44.2,30.22,North,0,4.7,8.5,74,0.00,,,0.00,WUHU216HW,2013-02-15 13:56:00,
2013-02-15 08:01:00,-39.2,-43.6,30.22,NW,315,4.5,8.5,77,0.00,,,0.00,WUHU216HW,2013-02-15 14:01:00,
2013-02-15 08:06:00,-39.2,-42.8,30.22,NW,315,7.8,7.8,81,0.00,,,0.00,WUHU216HW,2013-02-15 14:06:00,
2013-02-15 08:11:00,-39.2,-42.8,30.22,NW,315,7.8,7.8,81,0.00,,,0.00,WUHU216HW,2013-02-15 14:11:00,
2013-02-15 09:15:00,138.2,62.3,30.24,NNW,338,6.5,6.5,1,0.00,,,0.00,WUHU216HW,2013-02-15 15:15:00,
2013-02-15 09:20:00,138.2,21.5,30.24,North,0,6.0,9.6,1,0.00,,,0.00,WUHU216HW,2013-02-15 15:20:00,
2013-02-15 09:25:00,138.2,21.5,30.24,NNW,338,6.0,9.6,1,0.00,,,0.00,WUHU216HW,2013-02-15 15:25:00,
2013-02-15 09:30:00,138.2,21.5,30.24,NNW,338,6.0,6.3,1,0.00,,,0.00,WUHU216HW,2013-02-15 15:30:00,
2013-02-15 09:54:00,18.9,1.0,30.24,NNW,338,5.6,5.6,45,0.00,,,0.00,WUHU216HW,2013-02-15 15:54:00,
2013-02-15 09:58:00,19.1,2.1,30.24,NNW,338,6.5,6.5,47,0.00,,,0.00,WUHU216HW,2013-02-15 15:58:00,
2013-02-15 10:03:00,19.4,3.8,30.24,NW,315,7.2,9.2,50,0.00,,,0.00,WUHU216HW,2013-02-15 16:03:00,
2013-02-15 10:09:00,20.0,3.3,30.24,North,0,8.5,9.2,48,0.00,,,0.00,WUHU216HW,2013-02-15 16:09:00,
2013-02-15 10:13:00,18.9,2.8,30.25,North,0,5.1,9.2,49,0.00,,,0.00,WUHU216HW,2013-02-15 16:13:00,
2013-02-15 10:19:00,18.4,2.3,30.24,North,0,7.6,7.6,49,0.00,,,0.00,WUHU216HW,2013-02-15 16:19:00,
2013-02-15 10:24:00,18.2,1.7,30.24,NNW,338,6.0,7.6,48,0.00,,,0.00,WUHU216HW,2013-02-15 16:24:00,
2013-02-15 10:29:00,19.1,2.5,30.24,NW,315,9.2,9.2,48,0.00,,,0.00,WUHU216HW,2013-02-15 16:29:00,
2013-02-15 10:34:00,19.4,3.3,30.24,NNW,338,5.4,9.2,49,0.00,,,0.00,WUHU216HW,2013-02-15 16:34:00,
2013-02-15 10:39:00,20.7,4.0,30.24,North,0,5.4,7.6,48,0.00,,,0.00,WUHU216HW,2013-02-15 16:39:00,
2013-02-15 10:44:00,21.2,3.1,30.24,NW,315,6.9,9.2,45,0.00,,,0.00,WUHU216HW,2013-02-15 16:44:00,
2013-02-15 10:49:00,21.2,3.5,30.24,ENE,68,6.9,9.2,46,0.00,,,0.00,WUHU216HW,2013-02-15 16:49:00,
2013-02-15 10:54:00,21.1,3.3,30.24,NNW,338,8.7,10.1,46,0.00,,,0.00,WUHU216HW,2013-02-15 16:54:00,
2013-02-15 10:59:00,21.2,4.5,30.24,North,0,6.9,10.3,48,0.00,,,0.00,WUHU216HW,2013-02-15 16:59:00,
2013-02-15 11:04:00,21.4,4.7,30.24,NNW,338,8.5,10.3,48,0.00,,,0.00,WUHU216HW,2013-02-15 17:04:00,
2013-02-15 11:08:00,21.4,4.7,30.24,WNW,293,9.4,11.9,48,0.00,,,0.00,WUHU216HW,2013-02-15 17:08:00,
2013-02-15 11:13:00,21.2,5.0,30.24,NNW,338,12.8,12.8,49,0.00,,,0.00,WUHU216HW,2013-02-15 17:13:00,
2013-02-15 11:18:00,21.4,5.1,30.24,North,0,8.7,12.8,49,0.00,,,0.00,WUHU216HW,2013-02-15 17:18:00,
2013-02-15 11:23:00,22.1,5.9,30.24,NNW,338,6.5,10.5,49,0.00,,,0.00,WUHU216HW,2013-02-15 17:23:00,
2013-02-15 11:28:00,22.0,5.1,30.24,NNE,23,6.9,12.1,48,0.00,,,0.00,WUHU216HW,2013-02-15 17:28:00,
2013-02-15 11:33:00,22.3,5.0,30.25,North,0,8.1,12.1,47,0.00,,,0.00,WUHU216HW,2013-02-15 17:33:00,
2013-02-15 11:38:00,22.0,5.1,30.24,North,0,12.1,12.1,48,0.00,,,0.00,WUHU216HW,2013-02-15 17:38:00,
2013-02-15 11:43:00,22.3,5.0,30.25,NNW,338,12.1,12.1,47,0.00,,,0.00,WUHU216HW,2013-02-15 17:43:00,
2013-02-15 11:48:00,22.0,5.1,30.24,North,0,8.5,14.5,48,0.00,,,0.00,WUHU216HW,2013-02-15 17:48:00,
2013-02-15 11:54:00,22.7,5.4,30.24,NW,315,12.1,14.5,47,0.00,,,0.00,WUHU216HW,2013-02-15 17:54:00,
2013-02-15 11:58:00,22.7,5.0,30.24,NW,315,8.3,17.7,46,0.00,,,0.00,WUHU216HW,2013-02-15 17:58:00,
2013-02-15 12:03:00,23.2,5.4,30.24,NNW,338,6.9,17.7,46,0.00,,,0.00,WUHU216HW,2013-02-15 18:03:00,
2013-02-15 12:08:00,23.8,6.4,30.24,North,0,7.6,11.9,47,0.00,,,0.00,WUHU216HW,2013-02-15 18:08:00,
2013-02-15 12:13:00,23.8,6.0,30.24,North,0,11.6,11.9,46,0.00,,,0.00,WUHU216HW,2013-02-15 18:13:00,
2013-02-15 12:18:00,23.6,5.2,30.23,NNE,23,8.1,13.9,45,0.00,,,0.00,WUHU216HW,2013-02-15 18:18:00,
2013-02-15 12:23:00,23.6,5.8,30.23,NNW,338,6.9,13.9,46,0.00,,,0.00,WUHU216HW,2013-02-15 18:23:00,
2013-02-15 12:28:00,24.1,5.2,30.23,North,0,6.7,10.3,44,0.00,,,0.00,WUHU216HW,2013-02-15 18:28:00,
2013-02-15 12:33:00,24.1,5.8,30.23,North,0,8.3,10.3,45,0.00,,,0.00,WUHU216HW,2013-02-15 18:33:00,
2013-02-15 12:38:00,24.5,5.6,30.23,NNW,338,9.2,9.4,44,0.00,,,0.00,WUHU216HW,2013-02-15 18:38:00,
2013-02-15 12:43:00,24.5,6.0,30.23,NNW,338,5.8,10.7,45,0.00,,,0.00,WUHU216HW,2013-02-15 18:43:00,
2013-02-15 12:48:00,25.6,6.6,30.23,NNW,338,8.5,13.2,44,0.00,,,0.00,WUHU216HW,2013-02-15 18:48:00,
2013-02-15 12:53:00,25.9,6.8,30.23,North,0,4.5,13.2,44,0.00,,,0.00,WUHU216HW,2013-02-15 18:53:00,
2013-02-15 12:58:00,26.1,7.0,30.23,NW,315,8.3,8.3,44,0.00,,,0.00,WUHU216HW,2013-02-15 18:58:00,
2013-02-15 13:03:00,25.6,6.6,30.23,NNW,338,4.7,9.8,44,0.00,,,0.00,WUHU216HW,2013-02-15 19:03:00,
2013-02-15 13:08:00,25.6,6.6,30.23,NW,315,6.5,10.5,44,0.00,,,0.00,WUHU216HW,2013-02-15 19:08:00,
2013-02-15 13:13:00,25.0,5.6,30.23,NW,315,3.6,10.5,43,0.00,,,0.00,WUHU216HW,2013-02-15 19:13:00,
2013-02-15 13:18:00,24.7,5.8,30.23,NW,315,7.8,12.1,44,0.00,,,0.00,WUHU216HW,2013-02-15 19:18:00,
2013-02-15 13:23:00,24.8,6.0,30.23,NW,315,4.7,12.1,44,0.00,,,0.00,WUHU216HW,2013-02-15 19:23:00,
2013-02-15 13:28:00,25.7,6.8,30.23,NNW,338,8.1,8.9,44,0.00,,,0.00,WUHU216HW,2013-02-15 19:28:00,
2013-02-15 13:33:00,26.5,6.8,30.23,NNW,338,6.9,10.7,43,0.00,,,0.00,WUHU216HW,2013-02-15 19:33:00,
2013-02-15 13:38:00,26.6,6.0,30.22,NW,315,8.5,10.7,41,0.00,,,0.00,WUHU216HW,2013-02-15 19:38:00,
2013-02-15 13:43:00,26.5,6.0,30.22,NNW,338,10.5,11.6,41,0.00,,,0.00,WUHU216HW,2013-02-15 19:43:00,
2013-02-15 13:48:00,25.7,5.8,30.22,North,0,6.3,12.5,42,0.00,,,0.00,WUHU216HW,2013-02-15 19:48:00,
2013-02-15 13:53:00,25.9,6.0,30.22,SW,225,10.3,12.5,42,0.00,,,0.00,WUHU216HW,2013-02-15 19:53:00,
2013-02-15 13:58:00,25.9,5.4,30.23,NE,45,9.2,12.8,41,0.00,,,0.00,WUHU216HW,2013-02-15 19:58:00,
2013-02-15 14:03:00,25.6,5.6,30.23,WNW,293,8.3,12.8,42,0.00,,,0.00,WUHU216HW,2013-02-15 20:03:00,
2013-02-15 14:08:00,25.4,5.4,30.23,NNW,338,6.3,9.4,42,0.00,,,0.00,WUHU216HW,2013-02-15 20:08:00,
2013-02-15 14:13:00,24.7,4.8,30.23,NNW,338,11.0,12.5,42,0.00,,,0.00,WUHU216HW,2013-02-15 20:13:00,
2013-02-15 14:18:00,24.8,5.0,30.22,NW,315,11.0,12.5,42,0.00,,,0.00,WUHU216HW,2013-02-15 20:18:00,
2013-02-15 14:23:00,25.4,6.0,30.22,NW,315,7.4,12.1,43,0.00,,,0.00,WUHU216HW,2013-02-15 20:23:00,
2013-02-15 14:28:00,25.9,6.0,30.22,NNW,338,8.5,8.9,42,0.00,,,0.00,WUHU216HW,2013-02-15 20:28:00,
2013-02-15 14:33:00,27.0,6.4,30.22,NNW,338,5.8,8.9,41,0.00,,,0.00,WUHU216HW,2013-02-15 20:33:00,
2013-02-15 14:38:00,27.0,6.0,30.22,NW,315,5.6,9.8,40,0.00,,,0.00,WUHU216HW,2013-02-15 20:38:00,
2013-02-15 14:43:00,26.3,5.2,30.22,North,0,10.5,10.5,40,0.00,,,0.00,WUHU216HW,2013-02-15 20:43:00,
2013-02-15 14:48:00,26.3,5.8,30.22,North,0,4.3,10.5,41,0.00,,,0.00,WUHU216HW,2013-02-15 20:48:00,
2013-02-15 14:53:00,25.9,5.4,30.22,NW,315,5.4,8.9,41,0.00,,,0.00,WUHU216HW,2013-02-15 20:53:00,
2013-02-15 14:58:00,26.5,6.0,30.22,NNW,338,8.1,13.4,41,0.00,,,0.00,WUHU216HW,2013-02-15 20:58:00,
2013-02-15 15:03:00,26.1,4.5,30.22,WNW,293,4.7,13.4,39,0.00,,,0.00,WUHU216HW,2013-02-15 21:03:00,
2013-02-15 15:08:00,26.3,5.8,30.22,NNW,338,9.6,10.3,41,0.00,,,0.00,WUHU216HW,2013-02-15 21:08:00,
2013-02-15 15:13:00,26.3,5.2,30.22,NE,45,4.0,10.5,40,0.00,,,0.00,WUHU216HW,2013-02-15 21:13:00,
2013-02-15 15:18:00,26.5,4.8,30.22,NW,315,6.7,10.5,39,0.00,,,0.00,WUHU216HW,2013-02-15 21:18:00,
2013-02-15 15:23:00,25.9,5.0,30.22,North,0,8.1,11.9,40,0.00,,,0.00,WUHU216HW,2013-02-15 21:23:00,
2013-02-15 15:28:00,25.0,3.5,30.23,SSW,203,6.7,12.8,39,0.00,,,0.00,WUHU216HW,2013-02-15 21:28:00,
2013-02-15 15:33:00,24.8,5.0,30.23,NW,315,9.8,15.0,42,0.00,,,0.00,WUHU216HW,2013-02-15 21:33:00,
2013-02-15 15:38:00,24.7,5.2,30.23,NNW,338,8.5,15.0,43,0.00,,,0.00,WUHU216HW,2013-02-15 21:38:00,
2013-02-15 15:43:00,25.2,5.2,30.23,NW,315,8.3,10.7,42,0.00,,,0.00,WUHU216HW,2013-02-15 21:43:00,
2013-02-15 15:48:00,25.2,5.2,30.23,NW,315,7.8,9.8,42,0.00,,,0.00,WUHU216HW,2013-02-15 21:48:00,
2013-02-15 15:53:00,24.8,4.4,30.23,NW,315,9.4,9.8,41,0.00,,,0.00,WUHU216HW,2013-02-15 21:53:00,
2013-02-15 15:58:00,24.7,4.8,30.23,NNW,338,2.9,9.8,42,0.00,,,0.00,WUHU216HW,2013-02-15 21:58:00,
2013-02-15 16:03:00,25.6,5.6,30.23,WNW,293,4.9,9.6,42,0.00,,,0.00,WUHU216HW,2013-02-15 22:03:00,
2013-02-15 16:08:00,25.7,5.8,30.23,NNW,338,7.2,7.2,42,0.00,,,0.00,WUHU216HW,2013-02-15 22:08:00,
2013-02-15 16:13:00,25.0,5.6,30.23,NNE,23,4.5,8.5,43,0.00,,,0.00,WUHU216HW,2013-02-15 22:13:00,
2013-02-15 16:18:00,25.2,5.2,30.23,NE,45,4.7,8.5,42,0.00,,,0.00,WUHU216HW,2013-02-15 22:18:00,
2013-02-15 16:23:00,24.7,5.2,30.23,West,270,4.7,8.5,43,0.00,,,0.00,WUHU216HW,2013-02-15 22:23:00,
2013-02-15 16:28:00,23.2,4.4,30.23,WNW,293,8.5,11.6,44,0.00,,,0.00,WUHU216HW,2013-02-15 22:28:00,
2013-02-15 16:33:00,22.1,4.0,30.23,WNW,293,7.8,14.1,45,0.00,,,0.00,WUHU216HW,2013-02-15 22:33:00,
2013-02-15 16:38:00,22.0,3.8,30.23,NW,315,8.5,14.1,45,0.00,,,0.00,WUHU216HW,2013-02-15 22:38:00,
2013-02-15 16:43:00,22.0,4.2,30.23,NW,315,6.9,9.2,46,0.00,,,0.00,WUHU216HW,2013-02-15 22:43:00,
2013-02-15 16:48:00,22.3,4.1,30.23,ENE,68,9.6,9.6,45,0.00,,,0.00,WUHU216HW,2013-02-15 22:48:00,
2013-02-15 16:53:00,21.2,3.5,30.23,WNW,293,2.0,11.9,46,0.00,,,0.00,WUHU216HW,2013-02-15 22:53:00,
2013-02-15 16:58:00,21.1,3.9,30.23,North,0,2.5,11.9,47,0.00,,,0.00,WUHU216HW,2013-02-15 22:58:00,
2013-02-15 17:03:00,21.2,3.5,30.23,West,270,11.0,11.0,46,0.00,,,0.00,WUHU216HW,2013-02-15 23:03:00,
2013-02-15 17:08:00,20.7,3.1,30.23,WSW,248,6.9,11.0,46,0.00,,,0.00,WUHU216HW,2013-02-15 23:08:00,
2013-02-15 17:13:00,20.5,2.9,30.23,WNW,293,11.0,11.0,46,0.00,,,0.00,WUHU216HW,2013-02-15 23:13:00,
2013-02-15 17:18:00,19.8,2.3,30.23,WNW,293,7.8,11.0,46,0.00,,,0.00,WUHU216HW,2013-02-15 23:18:00,
2013-02-15 17:23:00,20.0,2.4,30.23,WNW,293,8.9,10.1,46,0.00,,,0.00,WUHU216HW,2013-02-15 23:23:00,
2013-02-15 17:28:00,19.1,1.6,30.24,West,270,8.1,8.9,46,0.00,,,0.00,WUHU216HW,2013-02-15 23:28:00,
2013-02-15 17:33:00,18.5,0.6,30.23,WNW,293,4.0,8.9,45,0.00,,,0.00,WUHU216HW,2013-02-15 23:33:00,
2013-02-15 17:38:00,18.4,-0.9,30.23,West,270,8.7,8.7,42,0.00,,,0.00,WUHU216HW,2013-02-15 23:38:00,
2013-02-15 17:43:00,18.0,-1.7,30.24,NNW,338,7.2,8.7,41,0.00,,,0.00,WUHU216HW,2013-02-15 23:43:00,
2013-02-15 17:48:00,18.4,-4.3,30.23,West,270,8.5,9.2,36,0.00,,,0.00,WUHU216HW,2013-02-15 23:48:00,
2013-02-15 17:53:00,19.4,-4.6,30.23,WNW,293,6.9,9.8,34,0.00,,,0.00,WUHU216HW,2013-02-15 23:53:00,
2013-02-15 17:58:00,23.2,-3.0,30.23,SW,225,11.2,11.2,31,0.00,,,0.00,WUHU216HW,2013-02-15 23:58:00,
2013-02-15 18:03:00,29.3,-1.7,30.23,West,270,4.9,11.2,26,0.00,,,0.00,WUHU216HW,2013-02-16 00:03:00,
2013-02-15 18:08:00,26.8,-34.7,30.23,WNW,293,6.9,8.7,5,0.00,,,0.00,WUHU216HW,2013-02-16 00:08:00,
2013-02-15 18:13:00,28.5,-44.1,30.23,NW,315,5.8,7.4,2,0.00,,,0.00,WUHU216HW,2013-02-16 00:13:00,
2013-02-15 18:18:00,95.8,5.7,30.23,NNW,338,5.1,6.3,3,0.00,,,0.00,WUHU216HW,2013-02-16 00:18:00,
2013-02-15 18:23:00,132.8,58.3,30.23,WSW,248,5.1,6.3,1,0.00,,,0.00,WUHU216HW,2013-02-16 00:23:00,
2013-02-15 18:28:00,132.8,58.3,30.23,WSW,248,5.1,6.3,1,0.00,,,0.00,WUHU216HW,2013-02-16 00:28:00,
2013-02-15 19:56:00,95.2,94.9,30.22,WSW,248,7.6,7.6,99,0.00,,,0.00,WUHU216HW,2013-02-16 01:56:00,
2013-02-15 20:01:00,90.4,90.1,30.22,West,270,7.4,8.5,99,0.00,,,0.00,WUHU216HW,2013-02-16 02:01:00,
2013-02-15 20:06:00,90.4,90.1,30.22,West,270,7.6,8.9,99,0.00,,,0.00,WUHU216HW,2013-02-16 02:06:00,
2013-02-15 20:11:00,3.2,3.0,30.22,West,270,8.9,9.2,99,0.00,,,0.00,WUHU216HW,2013-02-16 02:11:00,
2013-02-15 20:16:00,-19.3,-20.3,30.22,West,270,8.3,9.2,95,0.00,,,0.00,WUHU216HW,2013-02-16 02:16:00,
2013-02-15 20:21:00,-39.2,-40.7,30.22,West,270,8.3,9.8,92,0.00,,,0.00,WUHU216HW,2013-02-16 02:21:00,
2013-02-15 20:26:00,-39.2,-41.4,30.22,West,270,6.3,9.8,88,0.00,,,0.00,WUHU216HW,2013-02-16 02:26:00,
2013-02-15 20:31:00,-39.2,-42.4,30.22,West,270,6.7,7.6,83,0.00,,,0.00,WUHU216HW,2013-02-16 02:31:00,
2013-02-15 20:36:00,-39.2,-43.0,30.22,WNW,293,7.4,8.3,80,0.00,,,0.00,WUHU216HW,2013-02-16 02:36:00,
2013-02-15 20:41:00,-39.2,-43.4,30.22,WNW,293,6.7,8.3,78,0.00,,,0.00,WUHU216HW,2013-02-16 02:41:00,
2013-02-15 20:46:00,-39.2,-44.2,30.22,West,270,8.3,8.9,74,0.00,,,0.00,WUHU216HW,2013-02-16 02:46:00,
2013-02-15 20:51:00,-39.2,-44.7,30.22,WNW,293,8.7,8.9,72,0.00,,,0.00,WUHU216HW,2013-02-16 02:51:00,
2013-02-15 20:56:00,-39.2,-44.7,30.22,WNW,293,8.7,8.7,72,0.00,,,0.00,WUHU216HW,2013-02-16 02:56:00,
2013-02-15 21:01:00,-39.2,-45.9,30.22,West,270,7.2,7.6,67,0.00,,,0.00,WUHU216HW,2013-02-16 03:01:00,
2013-02-15 21:06:00,-39.2,-45.9,30.22,West,270,7.6,8.7,67,0.00,,,0.00,WUHU216HW,2013-02-16 03:06:00,
2013-02-15 21:11:00,-39.2,-45.9,30.22,WNW,293,3.8,8.7,67,0.00,,,0.00,WUHU216HW,2013-02-16 03:11:00,
2013-02-15 21:16:00,-39.2,-45.9,30.22,West,270,5.4,8.7,67,0.00,,,0.00,WUHU216HW,2013-02-16 03:16:00,
2013-02-15 21:21:00,-39.2,-46.1,30.22,NNW,338,2.5,5.4,66,0.00,,,0.00,WUHU216HW,2013-02-16 03:21:00,
2013-02-15 21:26:00,-39.2,-46.4,30.22,WNW,293,8.9,8.9,65,0.00,,,0.00,WUHU216HW,2013-02-16 03:26:00,
2013-02-15 21:31:00,-39.2,-46.4,30.22,NW,315,3.1,8.9,65,0.00,,,0.00,WUHU216HW,2013-02-16 03:31:00,
2013-02-15 21:36:00,-39.2,-46.6,30.22,WNW,293,4.5,7.2,64,0.00,,,0.00,WUHU216HW,2013-02-16 03:36:00,
2013-02-15 21:41:00,-39.2,-46.6,30.22,ENE,68,4.7,7.2,64,0.00,,,0.00,WUHU216HW,2013-02-16 03:41:00,
2013-02-15 21:46:00,-39.2,-46.9,30.22,NW,315,6.3,6.9,63,0.00,,,0.00,WUHU216HW,2013-02-16 03:46:00,
2013-02-15 21:51:00,-39.2,-46.9,30.21,WNW,293,6.3,6.9,63,0.00,,,0.00,WUHU216HW,2013-02-16 03:51:00,
2013-02-15 21:56:00,-39.2,-46.9,30.21,NW,315,1.3,6.9,63,0.00,,,0.00,WUHU216HW,2013-02-16 03:56:00,
2013-02-15 22:01:00,-39.2,-46.9,30.21,NW,315,2.5,5.4,63,0.00,,,0.00,WUHU216HW,2013-02-16 04:01:00,
2013-02-15 22:06:00,-39.2,-46.9,30.21,NW,315,5.6,7.6,63,0.00,,,0.00,WUHU216HW,2013-02-16 04:06:00,
2013-02-15 22:11:00,-39.2,-46.9,30.21,North,0,6.3,7.6,63,0.00,,,0.00,WUHU216HW,2013-02-16 04:11:00,
2013-02-15 22:16:00,-39.2,-46.9,30.21,West,270,5.6,6.9,63,0.00,,,0.00,WUHU216HW,2013-02-16 04:16:00,
2013-02-15 22:21:00,-39.2,-46.9,30.21,NW,315,5.6,6.9,63,0.00,,,0.00,WUHU216HW,2013-02-16 04:21:00,
2013-02-15 22:26:00,-39.2,-47.2,30.21,NW,315,4.7,6.3,62,0.00,,,0.00,WUHU216HW,2013-02-16 04:26:00,
2013-02-15 22:31:00,-39.2,-47.2,30.22,NNW,338,6.3,7.2,62,0.00,,,0.00,WUHU216HW,2013-02-16 04:31:00,
2013-02-15 22:36:00,-39.2,-47.4,30.22,NW,315,5.4,9.2,61,0.00,,,0.00,WUHU216HW,2013-02-16 04:36:00,
2013-02-15 22:41:00,-39.2,-48.0,30.21,NNW,338,7.6,9.2,59,0.00,,,0.00,WUHU216HW,2013-02-16 04:41:00,
2013-02-15 22:46:00,-39.2,-48.0,30.21,NW,315,7.2,8.3,59,0.00,,,0.00,WUHU216HW,2013-02-16 04:46:00,
2013-02-15 22:51:00,-39.2,-48.5,30.21,WNW,293,5.4,7.6,57,0.00,,,0.00,WUHU216HW,2013-02-16 04:51:00,
2013-02-15 22:56:00,-39.2,-48.8,30.21,NNW,338,7.6,8.7,56,0.00,,,0.00,WUHU216HW,2013-02-16 04:56:00,
2013-02-15 23:00:00,-39.2,-49.1,30.21,West,270,5.6,8.7,55,0.00,,,0.00,WUHU216HW,2013-02-16 05:00:00,
2013-02-15 23:05:00,-39.2,-50.1,30.21,NW,315,4.3,7.6,52,0.00,,,0.00,WUHU216HW,2013-02-16 05:05:00,
2013-02-15 23:10:00,-39.2,-50.7,30.21,NW,315,4.0,5.4,50,0.00,,,0.00,WUHU216HW,2013-02-16 05:10:00,
2013-02-15 23:15:00,-39.2,-51.7,30.21,NNW,338,2.5,6.7,47,0.00,,,0.00,WUHU216HW,2013-02-16 05:15:00,
2013-02-15 23:20:00,-39.2,-52.4,30.20,WNW,293,3.4,6.7,45,0.00,,,0.00,WUHU216HW,2013-02-16 05:20:00,
2013-02-15 23:23:00,-39.2,-52.4,30.20,NW,315,1.8,4.7,45,0.00,,,0.00,WUHU216HW,2013-02-16 05:23:00,
2013-02-15 23:28:00,-39.2,-53.6,30.20,NW,315,3.4,4.7,42,0.00,,,0.00,WUHU216HW,2013-02-16 05:28:00,
2013-02-15 23:33:00,-39.2,-53.9,30.20,NW,315,4.7,4.7,41,0.00,,,0.00,WUHU216HW,2013-02-16 05:33:00,
2013-02-15 23:38:00,-39.2,-54.3,30.20,NW,315,6.5,6.5,40,0.00,,,0.00,WUHU216HW,2013-02-16 05:38:00,
2013-02-15 23:43:00,-39.2,-54.3,30.20,NNW,338,1.8,6.5,40,0.00,,,0.00,WUHU216HW,2013-02-16 05:43:00,
2013-02-15 23:48:00,-39.2,-54.7,30.20,WNW,293,2.5,4.5,39,0.00,,,0.00,WUHU216HW,2013-02-16 05:48:00,
2013-02-15 23:53:00,-39.2,-55.1,30.20,WNW,293,1.3,4.0,38,0.00,,,0.00,WUHU216HW,2013-02-16 05:53:00,
2013-02-15 23:58:00,-39.2,-54.7,30.20,NW,315,2.5,5.8,39,0.00,,,0.00,WUHU216HW,2013-02-16 05:58:00,